Aviation Digital Data Service (ADDS)

Output produced by METARs form (0625 UTC 23 February 2018)
found at http://aviationweather.gov/adds/metars/
 
KBPT 230520Z 2306/2406 15009KT 4SM BR OVC005 
     TEMPO 2310/2314 1/2SM FG VV002 
     FM231500 14010KT P6SM BKN008 OVC015 
     FM231800 15014G22KT P6SM BKN035